createdAt,value
2023-01-11T00:00:56.901Z,78.62
2023-01-11T00:03:24.859Z,78.77
2023-01-11T00:05:57.397Z,78.61
2023-01-11T00:08:25.825Z,78.41
2023-01-11T00:10:54.224Z,78.64
2023-01-11T00:13:22.299Z,78.63
2023-01-11T00:15:50.413Z,78.73
2023-01-11T00:18:18.387Z,79.16
2023-01-11T00:20:46.715Z,79.08
2023-01-11T00:23:15.981Z,78.48
2023-01-11T00:25:43.844Z,78.55
2023-01-11T00:28:11.982Z,78.75
2023-01-11T00:30:40.168Z,78.72
2023-01-11T00:33:08.170Z,78.99
2023-01-11T00:35:36.090Z,79.17
2023-01-11T00:38:04.052Z,79.96
2023-01-11T00:40:33.349Z,79.28
2023-01-11T00:43:18.551Z,79.35
2023-01-11T00:46:03.885Z,79.36
2023-01-11T00:48:31.833Z,78.74
2023-01-11T00:50:59.886Z,78.97
2023-01-11T00:53:27.824Z,78.64
2023-01-11T00:55:57.125Z,77.88
2023-01-11T00:58:25.040Z,77.61
2023-01-11T01:00:53.081Z,77.50
2023-01-11T01:03:21.082Z,77.50
2023-01-11T01:05:49.129Z,77.44
2023-01-11T01:08:17.096Z,77.20
2023-01-11T01:10:44.999Z,77.18
2023-01-11T01:13:31.739Z,77.37
2023-01-11T01:15:59.779Z,77.44
2023-01-11T01:18:27.819Z,77.94
2023-01-11T01:20:55.777Z,78.79
2023-01-11T01:23:23.695Z,78.52
2023-01-11T01:25:51.707Z,77.72
2023-01-11T01:28:22.250Z,77.47
2023-01-11T01:30:53.350Z,77.37
2023-01-11T01:33:21.355Z,77.19
2023-01-11T01:35:49.341Z,78.01
2023-01-11T01:38:17.731Z,78.33
2023-01-11T01:40:48.051Z,77.41
2023-01-11T01:43:18.400Z,77.01
2023-01-11T01:45:50.163Z,76.60
2023-01-11T01:48:23.226Z,76.78
2023-01-11T01:50:54.799Z,76.98
2023-01-11T01:53:28.991Z,77.05
2023-01-11T01:56:02.675Z,75.70
2023-01-11T01:58:35.336Z,76.20
2023-01-11T02:01:18.777Z,75.61
2023-01-11T02:03:48.081Z,75.58
2023-01-11T02:06:16.380Z,75.78
2023-01-11T02:08:48.009Z,76.21
2023-01-11T02:11:30.950Z,75.79
2023-01-11T02:14:02.108Z,76.11
2023-01-11T02:16:31.506Z,75.79
2023-01-11T02:19:00.851Z,76.50
2023-01-11T02:21:42.650Z,76.87
2023-01-11T02:24:44.234Z,77.04
2023-01-11T02:27:30.115Z,77.46
2023-01-11T02:30:08.954Z,77.08
2023-01-11T02:32:49.770Z,76.39
2023-01-11T02:35:23.357Z,75.78
2023-01-11T02:38:00.353Z,77.26
2023-01-11T02:40:38.459Z,75.76
2023-01-11T02:43:34.356Z,76.05
2023-01-11T02:46:11.335Z,76.11
2023-01-11T02:48:48.519Z,76.93
2023-01-11T02:51:23.323Z,76.43
2023-01-11T02:53:56.594Z,77.34
2023-01-11T02:56:28.328Z,77.14
2023-01-11T02:58:58.794Z,77.53
2023-01-11T03:01:28.408Z,76.54
2023-01-11T03:03:57.235Z,77.10
2023-01-11T03:06:28.456Z,77.05
2023-01-11T03:09:13.725Z,76.97
2023-01-11T03:12:22.235Z,76.26
2023-01-11T03:15:00.510Z,76.51
2023-01-11T03:17:43.552Z,76.04
2023-01-11T03:20:21.560Z,75.02
2023-01-11T03:23:05.017Z,75.22
2023-01-11T03:25:43.809Z,74.59
2023-01-11T03:28:18.137Z,74.93
2023-01-11T03:30:52.180Z,74.44
2023-01-11T03:33:28.369Z,74.19
2023-01-11T03:36:02.353Z,74.05
2023-01-11T03:38:37.685Z,73.47
2023-01-11T03:41:09.439Z,72.72
2023-01-11T03:43:41.609Z,72.71
2023-01-11T03:46:14.843Z,72.88
2023-01-11T03:48:48.763Z,71.86
2023-01-11T03:51:22.006Z,71.70
2023-01-11T03:53:51.697Z,72.45
2023-01-11T03:56:26.321Z,72.99
2023-01-11T03:58:54.345Z,72.92
2023-01-11T04:01:22.787Z,73.28
2023-01-11T04:03:52.227Z,74.00
2023-01-11T04:06:21.044Z,74.54
2023-01-11T04:08:49.169Z,74.88
2023-01-11T04:11:17.145Z,75.33
2023-01-11T04:13:45.078Z,75.67
2023-01-11T04:16:12.998Z,76.68
2023-01-11T04:18:41.324Z,77.51
2023-01-11T04:21:10.609Z,77.59
2023-01-11T04:23:38.627Z,78.22
2023-01-11T04:26:07.092Z,77.83
2023-01-11T04:28:36.035Z,77.91
2023-01-11T04:31:04.088Z,77.61
2023-01-11T04:33:32.107Z,78.24
2023-01-11T04:36:00.010Z,78.03
2023-01-11T04:38:29.287Z,78.68
2023-01-11T04:41:17.184Z,79.43
2023-01-11T04:43:44.063Z,79.87
2023-01-11T04:46:12.062Z,80.80
2023-01-11T04:48:40.693Z,80.00
2023-01-11T04:51:09.062Z,81.30
2023-01-11T04:53:38.910Z,80.59
2023-01-11T04:56:08.298Z,80.64
2023-01-11T04:58:38.306Z,80.99
2023-01-11T05:01:10.408Z,81.28
2023-01-11T05:03:38.575Z,80.60
2023-01-11T05:06:07.124Z,80.73
2023-01-11T05:08:35.430Z,80.64
2023-01-11T05:11:07.427Z,81.19
2023-01-11T05:13:45.091Z,80.88
2023-01-11T05:16:15.770Z,80.11
2023-01-11T05:18:44.934Z,81.01
2023-01-11T05:21:14.764Z,80.00
2023-01-11T05:23:43.616Z,79.17
2023-01-11T05:26:15.259Z,79.65
2023-01-11T05:28:43.485Z,78.73
2023-01-11T05:31:11.562Z,79.28
2023-01-11T05:33:39.670Z,79.45
2023-01-11T05:36:10.321Z,79.33
2023-01-11T05:38:38.253Z,80.49
2023-01-11T05:41:08.217Z,80.37
2023-01-11T05:43:58.508Z,79.30
2023-01-11T05:46:26.254Z,79.82
2023-01-11T05:48:55.987Z,79.98
2023-01-11T05:51:24.068Z,80.27
2023-01-11T05:53:52.972Z,79.76
2023-01-11T05:56:21.247Z,79.60
2023-01-11T05:58:51.461Z,79.51
2023-01-11T06:01:20.590Z,79.45
2023-01-11T06:03:48.920Z,78.70
2023-01-11T06:06:18.760Z,79.91
2023-01-11T06:08:46.748Z,78.73
2023-01-11T06:11:15.855Z,78.84
2023-01-11T06:13:44.143Z,78.84
2023-01-11T06:16:15.500Z,78.72
2023-01-11T06:18:45.116Z,78.14
2023-01-11T06:21:14.141Z,78.18
2023-01-11T06:23:43.828Z,77.84
2023-01-11T06:26:14.130Z,77.88
2023-01-11T06:28:42.566Z,78.05
2023-01-11T06:31:11.072Z,78.40
2023-01-11T06:33:40.712Z,78.08
2023-01-11T06:36:10.936Z,78.17
2023-01-11T06:38:39.523Z,78.33
2023-01-11T06:41:09.415Z,78.15
2023-01-11T06:43:38.652Z,77.70
2023-01-11T06:46:06.984Z,78.96
2023-01-11T06:48:35.048Z,78.21
2023-01-11T06:51:04.407Z,78.87
2023-01-11T06:53:32.390Z,78.87
2023-01-11T06:56:00.550Z,79.49
2023-01-11T06:58:28.936Z,78.74
2023-01-11T07:00:58.209Z,79.85
2023-01-11T07:03:27.436Z,78.40
2023-01-11T07:05:57.361Z,78.66
2023-01-11T07:08:27.370Z,78.04
2023-01-11T07:10:55.935Z,76.91
2023-01-11T07:13:24.254Z,77.42
2023-01-11T07:15:54.298Z,77.45
2023-01-11T07:18:23.448Z,76.74
2023-01-11T07:20:52.328Z,76.69
2023-01-11T07:23:20.468Z,77.14
2023-01-11T07:25:50.693Z,76.47
2023-01-11T07:28:18.673Z,76.63
2023-01-11T07:31:02.648Z,77.06
2023-01-11T07:33:30.650Z,75.41
2023-01-11T07:36:00.807Z,75.95
2023-01-11T07:38:29.742Z,75.13
2023-01-11T07:40:59.163Z,73.75
2023-01-11T07:43:26.978Z,75.10
2023-01-11T07:45:55.149Z,73.99
2023-01-11T07:48:26.885Z,74.33
2023-01-11T07:50:55.536Z,72.43
2023-01-11T07:53:26.012Z,72.45
2023-01-11T07:55:55.565Z,73.43
2023-01-11T07:58:24.987Z,73.41
2023-01-11T08:00:53.046Z,72.12
2023-01-11T08:03:21.203Z,70.49
2023-01-11T08:05:51.592Z,70.35
2023-01-11T08:08:19.735Z,70.78
2023-01-11T08:11:07.773Z,71.95
2023-01-11T08:13:54.435Z,70.63
2023-01-11T08:16:22.578Z,71.60
2023-01-11T08:18:51.064Z,70.12
2023-01-11T08:21:21.227Z,70.58
2023-01-11T08:23:49.391Z,69.53
2023-01-11T08:26:18.065Z,68.42
2023-01-11T08:28:47.918Z,68.55
2023-01-11T08:31:15.966Z,67.60
2023-01-11T08:33:46.168Z,66.50
2023-01-11T08:36:14.594Z,66.01
2023-01-11T08:38:42.763Z,66.23
2023-01-11T08:41:11.782Z,66.21
2023-01-11T08:43:40.039Z,66.26
2023-01-11T08:46:09.978Z,66.25
2023-01-11T08:48:38.209Z,65.63
2023-01-11T08:51:06.378Z,65.72
2023-01-11T08:53:34.400Z,66.07
2023-01-11T08:56:02.499Z,64.68
2023-01-11T08:58:30.542Z,65.55
2023-01-11T09:00:59.387Z,66.74
2023-01-11T09:03:28.818Z,66.27
2023-01-11T09:05:57.596Z,65.46
2023-01-11T09:08:25.657Z,65.37
2023-01-11T09:10:53.668Z,66.08
2023-01-11T09:13:21.597Z,64.81
2023-01-11T09:15:49.664Z,65.18
2023-01-11T09:18:18.854Z,65.07
2023-01-11T09:20:48.116Z,65.34
2023-01-11T09:23:16.101Z,65.25
2023-01-11T09:25:44.070Z,64.76
2023-01-11T09:28:12.052Z,64.65
2023-01-11T09:30:40.039Z,65.12
2023-01-11T09:33:08.093Z,64.87
2023-01-11T09:35:38.554Z,63.54
2023-01-11T09:38:07.786Z,64.25
2023-01-11T09:40:46.355Z,63.66
2023-01-11T09:43:16.834Z,62.56
2023-01-11T09:45:46.904Z,63.08
2023-01-11T09:48:26.962Z,63.32
2023-01-11T09:50:55.007Z,63.86
2023-01-11T09:53:31.599Z,63.40
2023-01-11T09:56:02.513Z,63.22
2023-01-11T09:58:43.094Z,61.72
2023-01-11T10:01:18.781Z,62.22
2023-01-11T10:04:28.584Z,61.96
2023-01-11T10:07:15.563Z,62.28
2023-01-11T10:18:28.493Z,63.81
2023-01-11T10:19:19.105Z,63.38
2023-01-11T10:21:49.456Z,64.22
2023-01-11T10:24:26.138Z,63.89
2023-01-11T10:27:02.209Z,64.03
2023-01-11T10:29:49.890Z,63.81
2023-01-11T10:32:53.285Z,63.17
2023-01-11T10:35:45.551Z,62.58
2023-01-11T10:38:38.575Z,62.82
2023-01-11T10:41:20.162Z,63.70
2023-01-11T10:44:05.950Z,62.60
2023-01-11T10:46:39.705Z,64.06
2023-01-11T10:49:26.672Z,63.42
2023-01-11T10:52:00.123Z,61.23
2023-01-11T10:54:35.607Z,62.36
2023-01-11T10:57:14.117Z,62.81
2023-01-11T10:59:58.596Z,63.34
2023-01-11T11:02:44.895Z,63.96
2023-01-11T11:05:24.571Z,64.16
2023-01-11T11:07:59.024Z,64.84
2023-01-11T11:10:36.000Z,64.19
2023-01-11T11:13:11.770Z,64.69
2023-01-11T11:15:48.131Z,64.07
2023-01-11T11:18:16.163Z,63.99
2023-01-11T11:20:46.285Z,64.38
2023-01-11T11:23:18.157Z,63.79
2023-01-11T11:25:49.852Z,63.87
2023-01-11T11:28:29.840Z,64.83
2023-01-11T11:31:01.191Z,64.37
2023-01-11T11:33:35.137Z,63.83
2023-01-11T11:36:05.365Z,63.22
2023-01-11T11:38:36.768Z,63.13
2023-01-11T11:41:10.196Z,62.63
2023-01-11T11:43:39.554Z,61.55
2023-01-11T11:46:22.896Z,61.61
2023-01-11T11:49:11.897Z,60.88
2023-01-11T11:51:40.423Z,60.75
2023-01-11T11:54:17.647Z,60.10
2023-01-11T11:56:45.665Z,61.83
2023-01-11T11:59:17.170Z,61.26
2023-01-11T12:01:49.850Z,60.72
2023-01-11T12:04:22.065Z,61.53
2023-01-11T12:07:06.043Z,61.40
2023-01-11T12:09:35.970Z,61.16
2023-01-11T12:12:05.581Z,61.18
2023-01-11T12:14:35.353Z,60.82
2023-01-11T12:17:23.120Z,61.70
2023-01-11T12:19:51.067Z,61.18
2023-01-11T12:22:20.816Z,60.29
2023-01-11T12:24:49.944Z,60.80
2023-01-11T12:27:33.681Z,60.20
2023-01-11T12:30:14.433Z,60.54
2023-01-11T12:33:10.591Z,62.07
2023-01-11T12:35:48.777Z,61.54
2023-01-11T12:38:24.649Z,61.95
2023-01-11T12:41:08.752Z,63.11
2023-01-11T12:43:56.321Z,62.72
2023-01-11T12:46:38.508Z,61.35
2023-01-11T12:49:20.850Z,62.23
2023-01-11T12:52:04.949Z,62.15
2023-01-11T12:54:53.790Z,61.70
2023-01-11T12:57:30.119Z,60.52
2023-01-11T13:00:46.852Z,61.00
2023-01-11T13:03:35.416Z,61.83
2023-01-11T13:06:09.870Z,60.64
2023-01-11T13:08:53.224Z,60.62
2023-01-11T13:11:37.614Z,60.44
2023-01-11T13:14:25.647Z,59.96
2023-01-11T13:17:01.517Z,60.37
2023-01-11T13:19:37.591Z,59.62
2023-01-11T13:22:15.149Z,60.31
2023-01-11T13:24:47.041Z,60.32
2023-01-11T13:27:17.804Z,60.42
2023-01-11T13:29:48.404Z,60.67
2023-01-11T13:32:20.976Z,60.35
2023-01-11T13:34:53.477Z,61.03
2023-01-11T13:37:29.423Z,60.73
2023-01-11T13:40:05.955Z,60.82
2023-01-11T13:42:39.180Z,61.29
2023-01-11T13:45:17.587Z,62.07
2023-01-11T13:47:49.860Z,61.97
2023-01-11T13:50:24.778Z,62.07
2023-01-11T13:53:03.995Z,62.38
2023-01-11T13:55:41.809Z,62.24
2023-01-11T13:58:16.556Z,62.58
2023-01-11T14:00:50.821Z,63.92
2023-01-11T14:03:28.406Z,65.19
2023-01-11T14:06:10.599Z,65.69
2023-01-11T14:09:00.451Z,65.13
2023-01-11T14:11:40.043Z,65.31
2023-01-11T14:14:32.993Z,65.70
2023-01-11T14:17:28.708Z,64.91
2023-01-11T14:20:07.306Z,63.90
2023-01-11T14:22:42.634Z,64.99
2023-01-11T14:25:21.952Z,65.51
2023-01-11T14:28:24.543Z,65.80
2023-01-11T14:31:17.804Z,64.65
2023-01-11T14:34:11.895Z,65.08
2023-01-11T14:37:05.499Z,65.70
2023-01-11T14:39:57.703Z,65.54
2023-01-11T14:42:55.443Z,65.94
2023-01-11T14:45:32.979Z,67.16
2023-01-11T14:48:23.295Z,68.16
2023-01-11T14:51:33.171Z,68.33
2023-01-11T14:54:05.666Z,68.83
2023-01-11T14:56:36.938Z,69.33
2023-01-11T14:59:08.372Z,69.73
2023-01-11T15:02:23.712Z,71.78
2023-01-11T15:05:12.972Z,72.58
2023-01-11T15:07:43.853Z,73.55
2023-01-11T15:10:41.998Z,74.91
2023-01-11T15:13:16.008Z,75.90
2023-01-11T15:16:02.903Z,76.18
2023-01-11T15:18:31.501Z,76.45
2023-01-11T15:21:04.740Z,77.32
2023-01-11T15:23:36.855Z,77.01
2023-01-11T15:26:08.027Z,76.88
2023-01-11T15:28:45.354Z,77.94
2023-01-11T15:31:39.035Z,77.55
2023-01-11T15:34:22.893Z,78.33
2023-01-11T15:37:13.029Z,78.38
2023-01-11T15:39:46.608Z,78.30
2023-01-11T15:42:37.066Z,79.25
2023-01-11T15:46:00.333Z,78.37
2023-01-11T15:48:45.297Z,77.06
2023-01-11T15:51:38.454Z,77.33
2023-01-11T15:54:31.592Z,76.75
2023-01-11T15:57:31.489Z,76.69
2023-01-11T16:00:41.424Z,76.31
2023-01-11T16:03:42.360Z,76.67
2023-01-11T16:06:18.879Z,76.38
2023-01-11T16:08:58.147Z,77.02
2023-01-11T16:11:37.670Z,76.77
2023-01-11T16:14:30.912Z,76.58
2023-01-11T16:16:59.559Z,76.85
2023-01-11T16:19:32.673Z,77.57
2023-01-11T16:22:05.597Z,77.56
2023-01-11T16:24:38.889Z,76.99
2023-01-11T16:27:09.297Z,76.62
2023-01-11T16:29:39.225Z,76.17
2023-01-11T16:32:09.341Z,77.23
2023-01-11T16:34:43.305Z,77.81
2023-01-11T16:37:24.022Z,76.86
2023-01-11T16:39:56.903Z,76.97
2023-01-11T16:42:27.106Z,76.62
2023-01-11T16:44:59.937Z,75.74
2023-01-11T16:47:27.909Z,76.27
2023-01-11T16:50:22.228Z,76.49
2023-01-11T16:52:53.331Z,76.58
2023-01-11T16:55:30.269Z,76.91
2023-01-11T16:58:01.453Z,76.97
2023-01-11T17:00:35.777Z,76.67
2023-01-11T17:03:17.623Z,76.13
2023-01-11T17:05:57.693Z,76.00
2023-01-11T17:08:28.087Z,75.93
2023-01-11T17:10:58.628Z,76.72
2023-01-11T17:13:54.626Z,76.30
2023-01-11T17:16:25.467Z,76.73
2023-01-11T17:18:54.537Z,76.95
2023-01-11T17:21:26.007Z,77.66
2023-01-11T17:23:59.254Z,76.49
2023-01-11T17:26:30.221Z,76.95
2023-01-11T17:29:00.857Z,77.45
2023-01-11T17:31:32.108Z,78.48
2023-01-11T17:34:05.460Z,78.72
2023-01-11T17:36:35.222Z,78.56
2023-01-11T17:39:04.714Z,79.36
2023-01-11T17:41:50.309Z,79.78
2023-01-11T17:44:38.000Z,79.89
2023-01-11T17:47:09.185Z,79.87
2023-01-11T17:49:39.157Z,80.46
2023-01-11T17:52:21.478Z,80.11
2023-01-11T17:55:01.624Z,80.32
2023-01-11T17:57:29.864Z,80.84
2023-01-11T18:00:18.580Z,80.99
2023-01-11T18:02:47.732Z,81.55
2023-01-11T18:05:17.848Z,81.40
2023-01-11T18:07:50.297Z,81.31
2023-01-11T18:10:21.225Z,81.03
2023-01-11T18:12:50.933Z,81.97
2023-01-11T18:15:21.917Z,81.87
2023-01-11T18:17:53.230Z,82.49
2023-01-11T18:20:42.753Z,81.92
2023-01-11T18:23:23.097Z,82.51
2023-01-11T18:25:51.400Z,81.52
2023-01-11T18:28:38.070Z,81.01
2023-01-11T18:31:06.303Z,80.65
2023-01-11T18:33:35.345Z,80.68
2023-01-11T18:36:05.148Z,79.68
2023-01-11T18:38:36.478Z,79.37
2023-01-11T18:41:21.996Z,79.70
2023-01-11T18:43:50.142Z,79.75
2023-01-11T18:46:18.295Z,79.62
2023-01-11T18:48:46.377Z,78.54
2023-01-11T18:51:17.785Z,79.03
2023-01-11T18:53:47.243Z,79.08
2023-01-11T18:56:16.432Z,80.01
2023-01-11T18:58:44.599Z,80.70
2023-01-11T19:01:12.787Z,82.07
2023-01-11T19:03:45.988Z,82.87
2023-01-11T19:06:14.339Z,83.58
2023-01-11T19:08:42.702Z,84.88
2023-01-11T19:11:13.902Z,84.95
2023-01-11T19:13:42.104Z,85.35
2023-01-11T19:16:10.671Z,84.90
2023-01-11T19:18:38.790Z,85.30
2023-01-11T19:21:09.253Z,85.27
2023-01-11T19:23:37.479Z,85.79
2023-01-11T19:26:05.936Z,85.73
2023-01-11T19:28:35.386Z,85.98
2023-01-11T19:31:07.860Z,85.99
2023-01-11T19:33:36.070Z,86.03
2023-01-11T19:36:07.034Z,86.15
2023-01-11T19:38:35.187Z,86.03
2023-01-11T19:41:06.187Z,86.58
2023-01-11T19:43:35.772Z,86.08
2023-01-11T19:46:04.273Z,84.94
2023-01-11T19:48:33.230Z,84.72
2023-01-11T19:51:05.539Z,85.08
2023-01-11T19:53:33.902Z,85.12
2023-01-11T19:56:02.414Z,85.44
2023-01-11T19:58:30.517Z,85.68
2023-01-11T20:01:00.139Z,86.05
2023-01-11T20:03:30.215Z,85.70
2023-01-11T20:06:07.634Z,86.33
2023-01-11T20:08:38.433Z,86.63
2023-01-11T20:11:07.356Z,86.44
2023-01-11T20:13:35.521Z,85.22
2023-01-11T20:16:08.042Z,85.34
2023-01-11T20:18:35.951Z,85.16
2023-01-11T20:21:04.038Z,85.63
2023-01-11T20:23:32.249Z,85.79
2023-01-11T20:26:00.542Z,85.47
2023-01-11T20:28:29.161Z,85.61
2023-01-11T20:31:00.684Z,85.88
2023-01-11T20:33:31.285Z,85.32
2023-01-11T20:35:59.221Z,85.30
2023-01-11T20:38:27.219Z,84.60
2023-01-11T20:40:55.238Z,84.12
2023-01-11T20:43:23.292Z,84.90
2023-01-11T20:45:56.463Z,85.33
2023-01-11T20:48:24.422Z,84.90
2023-01-11T20:50:53.712Z,84.66
2023-01-11T20:53:21.631Z,85.41
2023-01-11T20:55:49.598Z,85.37
2023-01-11T20:58:17.639Z,85.80
2023-01-11T21:00:48.130Z,85.68
2023-01-11T21:03:16.748Z,85.17
2023-01-11T21:05:44.667Z,84.94
2023-01-11T21:08:14.018Z,85.76
2023-01-11T21:10:42.050Z,85.74
2023-01-11T21:13:10.043Z,86.07
2023-01-11T21:15:39.020Z,85.77
2023-01-11T21:18:07.521Z,85.55
2023-01-11T21:20:35.948Z,85.63
2023-01-11T21:23:04.010Z,86.01
2023-01-11T21:25:34.997Z,85.53
2023-01-11T21:28:03.987Z,86.63
2023-01-11T21:30:32.101Z,86.71
2023-01-11T21:33:00.108Z,87.58
2023-01-11T21:35:28.273Z,87.77
2023-01-11T21:37:56.275Z,87.79
2023-01-11T21:40:24.212Z,87.55
2023-01-11T21:42:53.460Z,87.04
2023-01-11T21:45:21.384Z,87.30
2023-01-11T21:47:49.317Z,86.27
2023-01-11T21:50:17.872Z,85.91
2023-01-11T21:52:45.875Z,85.66
2023-01-11T21:55:14.118Z,86.46
2023-01-11T21:57:42.090Z,86.45
2023-01-11T22:00:14.640Z,86.61
2023-01-11T22:02:42.588Z,87.32
2023-01-11T22:05:11.032Z,87.41
2023-01-11T22:07:40.941Z,86.64
2023-01-11T22:10:09.868Z,87.11
2023-01-11T22:12:37.775Z,86.83
2023-01-11T22:15:06.264Z,86.40
2023-01-11T22:17:35.823Z,85.77
2023-01-11T22:20:03.873Z,85.18
2023-01-11T22:22:32.133Z,85.75
2023-01-11T22:25:00.205Z,84.92
2023-01-11T22:27:28.126Z,85.26
2023-01-11T22:29:56.096Z,85.19
2023-01-11T22:32:24.141Z,84.96
2023-01-11T22:34:53.485Z,85.17
2023-01-11T22:37:21.481Z,86.04
2023-01-11T22:39:49.719Z,85.68
2023-01-11T22:42:17.618Z,86.11
2023-01-11T22:44:45.627Z,85.82
2023-01-11T22:47:13.555Z,85.64
2023-01-11T22:49:41.475Z,85.65
2023-01-11T22:52:10.825Z,85.25
2023-01-11T22:54:38.797Z,85.68
2023-01-11T22:57:06.729Z,85.36
2023-01-11T22:59:34.660Z,85.02
2023-01-11T23:02:02.616Z,84.98
2023-01-11T23:04:30.470Z,85.18
2023-01-11T23:06:58.432Z,85.63
2023-01-11T23:09:28.216Z,85.47
2023-01-11T23:12:13.473Z,85.53
2023-01-11T23:14:41.409Z,85.46
2023-01-11T23:17:09.326Z,85.53
2023-01-11T23:19:39.797Z,86.09
2023-01-11T23:22:08.677Z,85.77
2023-01-11T23:24:39.041Z,86.42
2023-01-11T23:27:07.158Z,86.13
2023-01-11T23:29:35.607Z,85.96
2023-01-11T23:32:03.789Z,85.37
2023-01-11T23:34:31.913Z,84.56
2023-01-11T23:36:59.880Z,83.72
2023-01-11T23:39:28.010Z,83.62
2023-01-11T23:42:15.019Z,83.92
2023-01-11T23:44:42.999Z,83.28
2023-01-11T23:47:29.859Z,83.35
2023-01-11T23:50:00.356Z,83.07
2023-01-11T23:52:30.370Z,82.68
2023-01-11T23:54:58.735Z,81.90
2023-01-11T23:57:28.346Z,82.25
2023-01-11T23:59:56.613Z,81.98
